sensor_id;sensor_type;location;lat;lon;timestamp;temperature;humidity
52203;DHT22;38173;52.850;6.970;2022-11-20T00:00:50;-2.10;99.90
52203;DHT22;38173;52.850;6.970;2022-11-20T00:03:18;-2.10;99.90
52203;DHT22;38173;52.850;6.970;2022-11-20T00:05:44;-2.10;99.90
52203;DHT22;38173;52.850;6.970;2022-11-20T00:08:10;-2.10;99.90
52203;DHT22;38173;52.850;6.970;2022-11-20T00:10:36;-2.10;99.90
52203;DHT22;38173;52.850;6.970;2022-11-20T00:13:02;-2.10;99.90
52203;DHT22;38173;52.850;6.970;2022-11-20T00:15:28;-2.10;99.90
52203;DHT22;38173;52.850;6.970;2022-11-20T00:17:54;-2.10;99.90
52203;DHT22;38173;52.850;6.970;2022-11-20T00:20:19;-1.90;99.90
52203;DHT22;38173;52.850;6.970;2022-11-20T00:22:45;-2.00;99.90
52203;DHT22;38173;52.850;6.970;2022-11-20T00:25:11;-2.00;99.90
52203;DHT22;38173;52.850;6.970;2022-11-20T00:27:36;-2.00;99.90
52203;DHT22;38173;52.850;6.970;2022-11-20T00:30:02;-2.00;99.90
52203;DHT22;38173;52.850;6.970;2022-11-20T00:32:30;-1.90;99.90
52203;DHT22;38173;52.850;6.970;2022-11-20T00:34:57;-1.90;99.90
52203;DHT22;38173;52.850;6.970;2022-11-20T00:37:22;-1.90;99.90
52203;DHT22;38173;52.850;6.970;2022-11-20T00:39:49;-1.90;99.90
52203;DHT22;38173;52.850;6.970;2022-11-20T00:42:14;-1.80;99.90
52203;DHT22;38173;52.850;6.970;2022-11-20T00:44:40;-1.80;99.90
52203;DHT22;38173;52.850;6.970;2022-11-20T00:47:06;-1.80;99.90
52203;DHT22;38173;52.850;6.970;2022-11-20T00:49:31;-1.80;99.90
52203;DHT22;38173;52.850;6.970;2022-11-20T00:51:57;-1.70;99.90
52203;DHT22;38173;52.850;6.970;2022-11-20T00:54:23;-1.70;99.90
52203;DHT22;38173;52.850;6.970;2022-11-20T00:56:48;-1.70;99.90
52203;DHT22;38173;52.850;6.970;2022-11-20T00:59:14;-1.70;99.90
52203;DHT22;38173;52.850;6.970;2022-11-20T01:01:39;-1.70;99.90
52203;DHT22;38173;52.850;6.970;2022-11-20T01:04:05;-1.70;99.90
52203;DHT22;38173;52.850;6.970;2022-11-20T01:06:34;-1.70;99.90
52203;DHT22;38173;52.850;6.970;2022-11-20T01:09:01;-1.70;99.90
52203;DHT22;38173;52.850;6.970;2022-11-20T01:11:31;-1.60;99.90
52203;DHT22;38173;52.850;6.970;2022-11-20T01:13:57;-1.60;99.90
52203;DHT22;38173;52.850;6.970;2022-11-20T01:16:24;-1.60;99.90
52203;DHT22;38173;52.850;6.970;2022-11-20T01:18:52;-1.60;99.90
52203;DHT22;38173;52.850;6.970;2022-11-20T01:21:19;-1.60;99.90
52203;DHT22;38173;52.850;6.970;2022-11-20T01:23:45;-1.60;99.90
52203;DHT22;38173;52.850;6.970;2022-11-20T01:26:12;-1.50;99.90
52203;DHT22;38173;52.850;6.970;2022-11-20T01:28:38;-1.50;99.90
52203;DHT22;38173;52.850;6.970;2022-11-20T01:31:14;-1.50;99.90
52203;DHT22;38173;52.850;6.970;2022-11-20T01:33:40;-1.50;99.90
52203;DHT22;38173;52.850;6.970;2022-11-20T01:36:06;-1.50;99.90
52203;DHT22;38173;52.850;6.970;2022-11-20T01:38:33;-1.40;99.90
52203;DHT22;38173;52.850;6.970;2022-11-20T01:40:58;-1.40;99.90
52203;DHT22;38173;52.850;6.970;2022-11-20T01:43:24;-1.40;99.90
52203;DHT22;38173;52.850;6.970;2022-11-20T01:48:47;-1.30;99.90
52203;DHT22;38173;52.850;6.970;2022-11-20T01:51:21;-1.30;99.90
52203;DHT22;38173;52.850;6.970;2022-11-20T01:53:49;-1.30;99.90
52203;DHT22;38173;52.850;6.970;2022-11-20T01:56:15;-1.30;99.90
52203;DHT22;38173;52.850;6.970;2022-11-20T01:58:43;-1.30;99.90
52203;DHT22;38173;52.850;6.970;2022-11-20T02:01:09;-1.30;99.90
52203;DHT22;38173;52.850;6.970;2022-11-20T02:03:35;-1.30;99.90
52203;DHT22;38173;52.850;6.970;2022-11-20T02:06:10;-1.30;99.90
52203;DHT22;38173;52.850;6.970;2022-11-20T02:08:37;-1.30;99.90
52203;DHT22;38173;52.850;6.970;2022-11-20T02:11:03;-1.30;99.90
52203;DHT22;38173;52.850;6.970;2022-11-20T02:13:29;-1.30;99.90
52203;DHT22;38173;52.850;6.970;2022-11-20T02:16:32;-1.30;99.90
52203;DHT22;38173;52.850;6.970;2022-11-20T02:18:56;-1.30;99.90
52203;DHT22;38173;52.850;6.970;2022-11-20T02:24:07;-1.30;99.90
52203;DHT22;38173;52.850;6.970;2022-11-20T02:26:35;-1.30;99.90
52203;DHT22;38173;52.850;6.970;2022-11-20T02:29:02;-1.30;99.90
52203;DHT22;38173;52.850;6.970;2022-11-20T02:31:30;-1.30;99.90
52203;DHT22;38173;52.850;6.970;2022-11-20T02:33:58;-1.30;99.90
52203;DHT22;38173;52.850;6.970;2022-11-20T02:36:26;-1.30;99.90
52203;DHT22;38173;52.850;6.970;2022-11-20T02:38:53;-1.20;99.90
52203;DHT22;38173;52.850;6.970;2022-11-20T02:41:19;-1.30;99.90
52203;DHT22;38173;52.850;6.970;2022-11-20T02:43:45;-1.30;99.90
52203;DHT22;38173;52.850;6.970;2022-11-20T02:46:10;-1.30;99.90
52203;DHT22;38173;52.850;6.970;2022-11-20T02:48:36;-1.20;99.90
52203;DHT22;38173;52.850;6.970;2022-11-20T02:51:02;-1.20;99.90
52203;DHT22;38173;52.850;6.970;2022-11-20T02:53:29;-1.20;99.90
52203;DHT22;38173;52.850;6.970;2022-11-20T02:55:54;-1.20;99.90
52203;DHT22;38173;52.850;6.970;2022-11-20T02:58:20;-1.20;99.90
52203;DHT22;38173;52.850;6.970;2022-11-20T03:00:46;-1.20;99.90
52203;DHT22;38173;52.850;6.970;2022-11-20T03:03:11;-1.20;99.90
52203;DHT22;38173;52.850;6.970;2022-11-20T03:05:38;-1.20;99.90
52203;DHT22;38173;52.850;6.970;2022-11-20T03:08:05;-1.20;99.90
52203;DHT22;38173;52.850;6.970;2022-11-20T03:10:30;-1.20;99.90
52203;DHT22;38173;52.850;6.970;2022-11-20T03:12:56;-1.20;99.90
52203;DHT22;38173;52.850;6.970;2022-11-20T03:15:22;-1.10;99.90
52203;DHT22;38173;52.850;6.970;2022-11-20T03:17:48;-1.10;99.90
52203;DHT22;38173;52.850;6.970;2022-11-20T03:20:13;-1.10;99.90
52203;DHT22;38173;52.850;6.970;2022-11-20T03:22:41;-1.10;99.90
52203;DHT22;38173;52.850;6.970;2022-11-20T03:25:07;-1.10;99.90
52203;DHT22;38173;52.850;6.970;2022-11-20T03:27:33;-1.10;99.90
52203;DHT22;38173;52.850;6.970;2022-11-20T03:29:59;-1.10;99.90
52203;DHT22;38173;52.850;6.970;2022-11-20T03:32:25;-1.10;99.90
52203;DHT22;38173;52.850;6.970;2022-11-20T03:34:50;-1.00;99.90
52203;DHT22;38173;52.850;6.970;2022-11-20T03:37:16;-1.00;99.90
52203;DHT22;38173;52.850;6.970;2022-11-20T03:39:41;-1.00;99.90
52203;DHT22;38173;52.850;6.970;2022-11-20T03:42:08;-1.00;99.90
52203;DHT22;38173;52.850;6.970;2022-11-20T03:44:53;-1.00;99.90
52203;DHT22;38173;52.850;6.970;2022-11-20T03:47:19;-1.00;99.90
52203;DHT22;38173;52.850;6.970;2022-11-20T03:49:44;-1.00;99.90
52203;DHT22;38173;52.850;6.970;2022-11-20T03:52:10;-1.00;99.90
52203;DHT22;38173;52.850;6.970;2022-11-20T03:54:35;-1.00;99.90
52203;DHT22;38173;52.850;6.970;2022-11-20T03:57:01;-1.00;99.90
52203;DHT22;38173;52.850;6.970;2022-11-20T03:59:26;-1.00;99.90
52203;DHT22;38173;52.850;6.970;2022-11-20T04:01:52;-1.00;99.90
52203;DHT22;38173;52.850;6.970;2022-11-20T04:04:18;-1.00;99.90
52203;DHT22;38173;52.850;6.970;2022-11-20T04:06:44;-0.90;99.90
52203;DHT22;38173;52.850;6.970;2022-11-20T04:09:09;-1.00;99.90
52203;DHT22;38173;52.850;6.970;2022-11-20T04:11:36;-0.90;99.90
52203;DHT22;38173;52.850;6.970;2022-11-20T04:14:03;-0.90;99.90
52203;DHT22;38173;52.850;6.970;2022-11-20T04:16:30;-0.90;99.90
52203;DHT22;38173;52.850;6.970;2022-11-20T04:18:57;-0.90;99.90
52203;DHT22;38173;52.850;6.970;2022-11-20T04:21:23;-0.90;99.90
52203;DHT22;38173;52.850;6.970;2022-11-20T04:23:49;-0.90;99.90
52203;DHT22;38173;52.850;6.970;2022-11-20T04:26:15;-0.80;99.90
52203;DHT22;38173;52.850;6.970;2022-11-20T04:28:41;-0.90;99.90
52203;DHT22;38173;52.850;6.970;2022-11-20T04:31:08;-0.80;99.90
52203;DHT22;38173;52.850;6.970;2022-11-20T04:33:34;-0.80;99.90
52203;DHT22;38173;52.850;6.970;2022-11-20T04:36:03;-0.80;99.90
52203;DHT22;38173;52.850;6.970;2022-11-20T04:38:29;-0.80;99.90
52203;DHT22;38173;52.850;6.970;2022-11-20T04:40:59;-0.80;99.90
52203;DHT22;38173;52.850;6.970;2022-11-20T04:43:25;-0.80;99.90
52203;DHT22;38173;52.850;6.970;2022-11-20T04:45:51;-0.80;99.90
52203;DHT22;38173;52.850;6.970;2022-11-20T04:48:17;-0.80;99.90
52203;DHT22;38173;52.850;6.970;2022-11-20T04:50:42;-0.80;99.90
52203;DHT22;38173;52.850;6.970;2022-11-20T04:53:08;-0.80;99.90
52203;DHT22;38173;52.850;6.970;2022-11-20T04:55:33;-0.80;99.90
52203;DHT22;38173;52.850;6.970;2022-11-20T04:57:59;-0.70;99.90
52203;DHT22;38173;52.850;6.970;2022-11-20T05:00:25;-0.80;99.90
52203;DHT22;38173;52.850;6.970;2022-11-20T05:02:50;-0.80;99.90
52203;DHT22;38173;52.850;6.970;2022-11-20T05:05:16;-0.80;99.90
52203;DHT22;38173;52.850;6.970;2022-11-20T05:07:42;-0.70;99.90
52203;DHT22;38173;52.850;6.970;2022-11-20T05:10:07;-0.70;99.90
52203;DHT22;38173;52.850;6.970;2022-11-20T05:12:33;-0.70;99.90
52203;DHT22;38173;52.850;6.970;2022-11-20T05:14:58;-0.70;99.90
52203;DHT22;38173;52.850;6.970;2022-11-20T05:17:24;-0.70;99.90
52203;DHT22;38173;52.850;6.970;2022-11-20T05:19:49;-0.70;99.90
52203;DHT22;38173;52.850;6.970;2022-11-20T05:22:15;-0.60;99.90
52203;DHT22;38173;52.850;6.970;2022-11-20T05:24:42;-0.70;99.90
52203;DHT22;38173;52.850;6.970;2022-11-20T05:27:07;-0.70;99.90
52203;DHT22;38173;52.850;6.970;2022-11-20T05:29:33;-0.70;99.90
52203;DHT22;38173;52.850;6.970;2022-11-20T05:31:58;-0.70;99.90
52203;DHT22;38173;52.850;6.970;2022-11-20T05:34:24;-0.70;99.90
52203;DHT22;38173;52.850;6.970;2022-11-20T05:36:51;-0.70;99.90
52203;DHT22;38173;52.850;6.970;2022-11-20T05:39:16;-0.70;99.90
52203;DHT22;38173;52.850;6.970;2022-11-20T05:41:42;-0.70;99.90
52203;DHT22;38173;52.850;6.970;2022-11-20T05:44:10;-0.70;99.90
52203;DHT22;38173;52.850;6.970;2022-11-20T05:46:35;-0.70;99.90
52203;DHT22;38173;52.850;6.970;2022-11-20T05:49:01;-0.70;99.90
52203;DHT22;38173;52.850;6.970;2022-11-20T05:51:27;-0.70;99.90
52203;DHT22;38173;52.850;6.970;2022-11-20T05:53:52;-0.70;99.90
52203;DHT22;38173;52.850;6.970;2022-11-20T05:56:19;-0.70;99.90
52203;DHT22;38173;52.850;6.970;2022-11-20T05:58:45;-0.80;99.90
52203;DHT22;38173;52.850;6.970;2022-11-20T06:03:36;-0.80;99.90
52203;DHT22;38173;52.850;6.970;2022-11-20T06:06:02;-0.80;99.90
52203;DHT22;38173;52.850;6.970;2022-11-20T06:08:29;-0.80;99.90
52203;DHT22;38173;52.850;6.970;2022-11-20T06:10:54;-0.80;99.90
52203;DHT22;38173;52.850;6.970;2022-11-20T06:13:20;-0.80;99.90
52203;DHT22;38173;52.850;6.970;2022-11-20T06:15:49;-0.80;99.90
52203;DHT22;38173;52.850;6.970;2022-11-20T06:18:17;-0.70;99.90
52203;DHT22;38173;52.850;6.970;2022-11-20T06:20:43;-0.70;99.90
52203;DHT22;38173;52.850;6.970;2022-11-20T06:23:09;-0.70;99.90
52203;DHT22;38173;52.850;6.970;2022-11-20T06:25:38;-0.70;99.90
52203;DHT22;38173;52.850;6.970;2022-11-20T06:28:04;-0.70;99.90
52203;DHT22;38173;52.850;6.970;2022-11-20T06:30:29;-0.60;99.90
52203;DHT22;38173;52.850;6.970;2022-11-20T06:32:55;-0.60;99.90
52203;DHT22;38173;52.850;6.970;2022-11-20T06:35:21;-0.60;99.90
52203;DHT22;38173;52.850;6.970;2022-11-20T06:37:47;-0.70;99.90
52203;DHT22;38173;52.850;6.970;2022-11-20T06:40:13;-0.70;99.90
52203;DHT22;38173;52.850;6.970;2022-11-20T06:42:38;-0.70;99.90
52203;DHT22;38173;52.850;6.970;2022-11-20T06:45:04;-0.70;99.90
52203;DHT22;38173;52.850;6.970;2022-11-20T06:47:31;-0.70;99.90
52203;DHT22;38173;52.850;6.970;2022-11-20T06:49:56;-0.60;99.90
52203;DHT22;38173;52.850;6.970;2022-11-20T06:52:22;-0.60;99.90
52203;DHT22;38173;52.850;6.970;2022-11-20T06:54:48;-0.60;99.90
52203;DHT22;38173;52.850;6.970;2022-11-20T06:57:16;-0.60;99.90
52203;DHT22;38173;52.850;6.970;2022-11-20T06:59:42;-0.60;99.90
52203;DHT22;38173;52.850;6.970;2022-11-20T07:02:10;-0.70;99.90
52203;DHT22;38173;52.850;6.970;2022-11-20T07:04:38;-0.70;99.90
52203;DHT22;38173;52.850;6.970;2022-11-20T07:07:04;-0.60;99.90
52203;DHT22;38173;52.850;6.970;2022-11-20T07:09:31;-0.60;99.90
52203;DHT22;38173;52.850;6.970;2022-11-20T07:11:57;-0.70;99.90
52203;DHT22;38173;52.850;6.970;2022-11-20T07:14:23;-0.60;99.90
52203;DHT22;38173;52.850;6.970;2022-11-20T07:16:51;-0.60;99.90
52203;DHT22;38173;52.850;6.970;2022-11-20T07:19:17;-0.60;99.90
52203;DHT22;38173;52.850;6.970;2022-11-20T07:21:42;-0.50;99.90
52203;DHT22;38173;52.850;6.970;2022-11-20T07:24:08;-0.50;99.90
52203;DHT22;38173;52.850;6.970;2022-11-20T07:26:33;-0.50;99.90
52203;DHT22;38173;52.850;6.970;2022-11-20T07:28:59;-0.60;99.90
52203;DHT22;38173;52.850;6.970;2022-11-20T07:31:25;-0.50;99.90
52203;DHT22;38173;52.850;6.970;2022-11-20T07:33:50;-0.60;99.90
52203;DHT22;38173;52.850;6.970;2022-11-20T07:36:16;-0.50;99.90
52203;DHT22;38173;52.850;6.970;2022-11-20T07:38:42;-0.50;99.90
52203;DHT22;38173;52.850;6.970;2022-11-20T07:41:07;-0.50;99.90
52203;DHT22;38173;52.850;6.970;2022-11-20T07:43:33;-0.50;99.90
52203;DHT22;38173;52.850;6.970;2022-11-20T07:45:58;-0.50;99.90
52203;DHT22;38173;52.850;6.970;2022-11-20T07:48:24;-0.50;99.90
52203;DHT22;38173;52.850;6.970;2022-11-20T07:50:53;-0.50;99.90
52203;DHT22;38173;52.850;6.970;2022-11-20T07:53:18;-0.40;99.90
52203;DHT22;38173;52.850;6.970;2022-11-20T07:55:46;-0.40;99.90
52203;DHT22;38173;52.850;6.970;2022-11-20T07:58:12;-0.40;99.90
52203;DHT22;38173;52.850;6.970;2022-11-20T08:00:37;-0.40;99.90
52203;DHT22;38173;52.850;6.970;2022-11-20T08:03:04;-0.50;99.90
52203;DHT22;38173;52.850;6.970;2022-11-20T08:05:30;-0.50;99.90
52203;DHT22;38173;52.850;6.970;2022-11-20T08:07:55;-0.50;99.90
52203;DHT22;38173;52.850;6.970;2022-11-20T08:10:21;-0.50;99.90
52203;DHT22;38173;52.850;6.970;2022-11-20T08:12:47;-0.40;99.90
52203;DHT22;38173;52.850;6.970;2022-11-20T08:15:49;-0.40;99.90
52203;DHT22;38173;52.850;6.970;2022-11-20T08:18:16;-0.30;99.90
52203;DHT22;38173;52.850;6.970;2022-11-20T08:20:42;-0.30;99.90
52203;DHT22;38173;52.850;6.970;2022-11-20T08:23:08;-0.30;99.90
52203;DHT22;38173;52.850;6.970;2022-11-20T08:25:34;-0.20;99.90
52203;DHT22;38173;52.850;6.970;2022-11-20T08:28:01;-0.30;99.90
52203;DHT22;38173;52.850;6.970;2022-11-20T08:30:27;-0.30;99.90
52203;DHT22;38173;52.850;6.970;2022-11-20T08:32:53;-0.20;99.90
52203;DHT22;38173;52.850;6.970;2022-11-20T08:35:19;-0.20;99.90
52203;DHT22;38173;52.850;6.970;2022-11-20T08:37:48;-0.20;99.90
52203;DHT22;38173;52.850;6.970;2022-11-20T08:40:15;-0.20;99.90
52203;DHT22;38173;52.850;6.970;2022-11-20T08:42:50;-0.20;99.90
52203;DHT22;38173;52.850;6.970;2022-11-20T08:45:18;-0.10;99.90
52203;DHT22;38173;52.850;6.970;2022-11-20T08:47:44;-0.10;99.90
52203;DHT22;38173;52.850;6.970;2022-11-20T08:50:10;0.00;99.90
52203;DHT22;38173;52.850;6.970;2022-11-20T08:52:36;-0.10;99.90
52203;DHT22;38173;52.850;6.970;2022-11-20T08:55:02;0.00;99.90
52203;DHT22;38173;52.850;6.970;2022-11-20T08:57:27;0.00;99.90
52203;DHT22;38173;52.850;6.970;2022-11-20T08:59:53;0.10;99.90
52203;DHT22;38173;52.850;6.970;2022-11-20T09:02:18;0.10;99.90
52203;DHT22;38173;52.850;6.970;2022-11-20T09:04:44;0.10;99.90
52203;DHT22;38173;52.850;6.970;2022-11-20T09:07:09;0.10;99.90
52203;DHT22;38173;52.850;6.970;2022-11-20T09:09:35;0.10;99.90
52203;DHT22;38173;52.850;6.970;2022-11-20T09:12:00;0.10;99.90
52203;DHT22;38173;52.850;6.970;2022-11-20T09:14:26;0.10;99.90
52203;DHT22;38173;52.850;6.970;2022-11-20T09:16:54;0.20;99.90
52203;DHT22;38173;52.850;6.970;2022-11-20T09:19:20;0.20;99.90
52203;DHT22;38173;52.850;6.970;2022-11-20T09:21:46;0.30;99.90
52203;DHT22;38173;52.850;6.970;2022-11-20T09:24:11;0.40;99.90
52203;DHT22;38173;52.850;6.970;2022-11-20T09:26:37;0.40;99.90
52203;DHT22;38173;52.850;6.970;2022-11-20T09:29:03;0.40;99.90
52203;DHT22;38173;52.850;6.970;2022-11-20T09:31:28;0.50;99.90
52203;DHT22;38173;52.850;6.970;2022-11-20T09:33:54;0.50;99.90
52203;DHT22;38173;52.850;6.970;2022-11-20T09:36:19;0.60;99.90
52203;DHT22;38173;52.850;6.970;2022-11-20T09:38:45;0.60;99.90
52203;DHT22;38173;52.850;6.970;2022-11-20T09:41:29;0.60;99.90
52203;DHT22;38173;52.850;6.970;2022-11-20T09:51:42;0.70;99.90
52203;DHT22;38173;52.850;6.970;2022-11-20T09:54:15;0.70;99.90
52203;DHT22;38173;52.850;6.970;2022-11-20T09:56:42;0.80;99.90
52203;DHT22;38173;52.850;6.970;2022-11-20T09:59:14;0.90;99.90
52203;DHT22;38173;52.850;6.970;2022-11-20T10:01:43;0.90;99.90
52203;DHT22;38173;52.850;6.970;2022-11-20T10:04:11;0.90;99.90
52203;DHT22;38173;52.850;6.970;2022-11-20T10:06:44;1.00;99.90
52203;DHT22;38173;52.850;6.970;2022-11-20T10:11:46;0.90;99.90
52203;DHT22;38173;52.850;6.970;2022-11-20T10:14:16;0.90;99.90
52203;DHT22;38173;52.850;6.970;2022-11-20T10:16:50;0.90;99.90
52203;DHT22;38173;52.850;6.970;2022-11-20T10:19:27;0.90;99.90
52203;DHT22;38173;52.850;6.970;2022-11-20T10:21:56;1.10;99.90
52203;DHT22;38173;52.850;6.970;2022-11-20T10:27:00;1.20;99.90
52203;DHT22;38173;52.850;6.970;2022-11-20T10:29:38;1.20;99.90
52203;DHT22;38173;52.850;6.970;2022-11-20T10:32:14;1.30;99.90
52203;DHT22;38173;52.850;6.970;2022-11-20T10:34:51;1.40;99.90
52203;DHT22;38173;52.850;6.970;2022-11-20T10:37:24;1.40;99.90
52203;DHT22;38173;52.850;6.970;2022-11-20T10:39:53;1.50;99.90
52203;DHT22;38173;52.850;6.970;2022-11-20T10:42:27;1.60;99.90
52203;DHT22;38173;52.850;6.970;2022-11-20T10:44:58;1.70;99.90
52203;DHT22;38173;52.850;6.970;2022-11-20T10:47:28;1.80;99.90
52203;DHT22;38173;52.850;6.970;2022-11-20T10:49:55;1.80;99.90
52203;DHT22;38173;52.850;6.970;2022-11-20T10:58:14;1.90;99.90
52203;DHT22;38173;52.850;6.970;2022-11-20T11:00:42;1.90;99.90
52203;DHT22;38173;52.850;6.970;2022-11-20T11:03:42;2.00;99.90
52203;DHT22;38173;52.850;6.970;2022-11-20T11:06:03;2.00;99.90
52203;DHT22;38173;52.850;6.970;2022-11-20T11:08:40;2.00;99.90
52203;DHT22;38173;52.850;6.970;2022-11-20T11:11:18;2.10;99.90
52203;DHT22;38173;52.850;6.970;2022-11-20T11:13:45;2.10;99.90
52203;DHT22;38173;52.850;6.970;2022-11-20T11:16:21;2.20;99.90
52203;DHT22;38173;52.850;6.970;2022-11-20T11:18:48;2.20;99.90
52203;DHT22;38173;52.850;6.970;2022-11-20T11:21:13;2.10;99.90
52203;DHT22;38173;52.850;6.970;2022-11-20T11:23:45;2.10;99.90
52203;DHT22;38173;52.850;6.970;2022-11-20T11:26:21;2.00;99.90
52203;DHT22;38173;52.850;6.970;2022-11-20T11:28:57;2.00;99.90
52203;DHT22;38173;52.850;6.970;2022-11-20T11:31:26;2.00;99.90
52203;DHT22;38173;52.850;6.970;2022-11-20T11:34:03;1.90;99.90
52203;DHT22;38173;52.850;6.970;2022-11-20T11:36:28;1.90;99.90
52203;DHT22;38173;52.850;6.970;2022-11-20T11:38:54;1.90;99.90
52203;DHT22;38173;52.850;6.970;2022-11-20T11:41:20;1.80;99.90
52203;DHT22;38173;52.850;6.970;2022-11-20T11:43:52;1.90;99.90
52203;DHT22;38173;52.850;6.970;2022-11-20T11:46:36;1.80;99.90
52203;DHT22;38173;52.850;6.970;2022-11-20T11:54:19;1.80;99.90
52203;DHT22;38173;52.850;6.970;2022-11-20T11:56:47;1.80;99.90
52203;DHT22;38173;52.850;6.970;2022-11-20T11:59:16;1.80;99.90
52203;DHT22;38173;52.850;6.970;2022-11-20T12:01:57;1.80;99.90
52203;DHT22;38173;52.850;6.970;2022-11-20T12:09:46;1.70;99.90
52203;DHT22;38173;52.850;6.970;2022-11-20T12:12:17;1.70;99.90
52203;DHT22;38173;52.850;6.970;2022-11-20T12:14:45;1.70;99.90
52203;DHT22;38173;52.850;6.970;2022-11-20T12:17:12;1.70;99.90
52203;DHT22;38173;52.850;6.970;2022-11-20T12:19:38;1.80;99.90
52203;DHT22;38173;52.850;6.970;2022-11-20T12:24:35;2.00;99.90
52203;DHT22;38173;52.850;6.970;2022-11-20T12:35:44;2.50;99.90
52203;DHT22;38173;52.850;6.970;2022-11-20T12:37:56;2.70;99.90
52203;DHT22;38173;52.850;6.970;2022-11-20T12:40:35;2.80;99.90
52203;DHT22;38173;52.850;6.970;2022-11-20T12:43:10;3.00;99.90
52203;DHT22;38173;52.850;6.970;2022-11-20T12:48:41;3.20;99.90
52203;DHT22;38173;52.850;6.970;2022-11-20T12:53:54;3.20;99.90
52203;DHT22;38173;52.850;6.970;2022-11-20T12:56:30;3.20;99.90
52203;DHT22;38173;52.850;6.970;2022-11-20T13:01:36;3.00;99.90
52203;DHT22;38173;52.850;6.970;2022-11-20T13:06:43;3.00;99.90
52203;DHT22;38173;52.850;6.970;2022-11-20T13:09:11;3.00;99.90
52203;DHT22;38173;52.850;6.970;2022-11-20T13:11:47;3.00;99.90
52203;DHT22;38173;52.850;6.970;2022-11-20T13:14:16;3.00;99.90
52203;DHT22;38173;52.850;6.970;2022-11-20T13:16:53;3.00;99.90
52203;DHT22;38173;52.850;6.970;2022-11-20T13:19:21;3.10;99.90
52203;DHT22;38173;52.850;6.970;2022-11-20T13:21:48;3.20;99.90
52203;DHT22;38173;52.850;6.970;2022-11-20T13:27:16;3.20;99.90
52203;DHT22;38173;52.850;6.970;2022-11-20T13:29:44;3.00;99.90
52203;DHT22;38173;52.850;6.970;2022-11-20T13:34:39;2.80;99.90
52203;DHT22;38173;52.850;6.970;2022-11-20T13:37:23;2.70;99.90
52203;DHT22;38173;52.850;6.970;2022-11-20T13:39:49;2.70;99.90
52203;DHT22;38173;52.850;6.970;2022-11-20T13:44:48;2.70;99.90
52203;DHT22;38173;52.850;6.970;2022-11-20T13:47:26;2.70;99.90
52203;DHT22;38173;52.850;6.970;2022-11-20T13:49:52;2.70;99.90
52203;DHT22;38173;52.850;6.970;2022-11-20T13:52:33;2.70;99.90
52203;DHT22;38173;52.850;6.970;2022-11-20T13:55:16;2.80;99.90
52203;DHT22;38173;52.850;6.970;2022-11-20T14:00:13;2.80;99.90
52203;DHT22;38173;52.850;6.970;2022-11-20T14:02:40;2.70;99.90
52203;DHT22;38173;52.850;6.970;2022-11-20T14:05:15;2.60;99.90
52203;DHT22;38173;52.850;6.970;2022-11-20T14:07:42;2.50;99.90
52203;DHT22;38173;52.850;6.970;2022-11-20T14:10:22;2.40;99.90
52203;DHT22;38173;52.850;6.970;2022-11-20T14:12:48;2.30;99.90
52203;DHT22;38173;52.850;6.970;2022-11-20T14:18:19;2.10;99.90
52203;DHT22;38173;52.850;6.970;2022-11-20T14:20:45;2.10;99.90
52203;DHT22;38173;52.850;6.970;2022-11-20T14:23:10;2.10;99.90
52203;DHT22;38173;52.850;6.970;2022-11-20T14:25:36;2.10;99.90
52203;DHT22;38173;52.850;6.970;2022-11-20T14:28:04;2.10;99.90
52203;DHT22;38173;52.850;6.970;2022-11-20T14:30:37;2.10;99.90
52203;DHT22;38173;52.850;6.970;2022-11-20T14:33:09;2.10;99.90
52203;DHT22;38173;52.850;6.970;2022-11-20T14:35:36;2.10;99.90
52203;DHT22;38173;52.850;6.970;2022-11-20T14:38:03;2.10;99.90
52203;DHT22;38173;52.850;6.970;2022-11-20T14:40:32;2.10;99.90
52203;DHT22;38173;52.850;6.970;2022-11-20T14:43:01;2.00;99.90
52203;DHT22;38173;52.850;6.970;2022-11-20T14:45:27;2.00;99.90
52203;DHT22;38173;52.850;6.970;2022-11-20T14:47:54;2.00;99.90
52203;DHT22;38173;52.850;6.970;2022-11-20T14:50:22;2.00;99.90
52203;DHT22;38173;52.850;6.970;2022-11-20T14:52:54;1.90;99.90
52203;DHT22;38173;52.850;6.970;2022-11-20T14:58:03;1.80;99.90
52203;DHT22;38173;52.850;6.970;2022-11-20T15:00:33;1.80;99.90
52203;DHT22;38173;52.850;6.970;2022-11-20T15:02:59;1.80;99.90
52203;DHT22;38173;52.850;6.970;2022-11-20T15:05:26;1.80;99.90
52203;DHT22;38173;52.850;6.970;2022-11-20T15:08:08;1.70;99.90
52203;DHT22;38173;52.850;6.970;2022-11-20T15:10:34;1.70;99.90
52203;DHT22;38173;52.850;6.970;2022-11-20T15:13:45;1.60;99.90
52203;DHT22;38173;52.850;6.970;2022-11-20T15:15:50;1.60;99.90
52203;DHT22;38173;52.850;6.970;2022-11-20T15:18:18;1.50;99.90
52203;DHT22;38173;52.850;6.970;2022-11-20T15:20:44;1.50;99.90
52203;DHT22;38173;52.850;6.970;2022-11-20T15:23:11;1.50;99.90
52203;DHT22;38173;52.850;6.970;2022-11-20T15:25:37;1.40;99.90
52203;DHT22;38173;52.850;6.970;2022-11-20T15:28:04;1.40;99.90
52203;DHT22;38173;52.850;6.970;2022-11-20T15:30:30;1.40;99.90
52203;DHT22;38173;52.850;6.970;2022-11-20T15:32:55;1.40;99.90
52203;DHT22;38173;52.850;6.970;2022-11-20T15:35:24;1.40;99.90
52203;DHT22;38173;52.850;6.970;2022-11-20T15:37:49;1.30;99.90
52203;DHT22;38173;52.850;6.970;2022-11-20T15:40:15;1.40;99.90
52203;DHT22;38173;52.850;6.970;2022-11-20T15:42:41;1.40;99.90
52203;DHT22;38173;52.850;6.970;2022-11-20T15:45:27;1.40;99.90
52203;DHT22;38173;52.850;6.970;2022-11-20T15:47:53;1.40;99.90
52203;DHT22;38173;52.850;6.970;2022-11-20T15:50:19;1.40;99.90
52203;DHT22;38173;52.850;6.970;2022-11-20T15:52:45;1.50;99.90
52203;DHT22;38173;52.850;6.970;2022-11-20T15:55:10;1.40;99.90
52203;DHT22;38173;52.850;6.970;2022-11-20T15:57:36;1.40;99.90
52203;DHT22;38173;52.850;6.970;2022-11-20T16:00:02;1.40;99.90
52203;DHT22;38173;52.850;6.970;2022-11-20T16:02:31;1.40;99.90
52203;DHT22;38173;52.850;6.970;2022-11-20T16:04:56;1.40;99.90
52203;DHT22;38173;52.850;6.970;2022-11-20T16:07:22;1.40;99.90
52203;DHT22;38173;52.850;6.970;2022-11-20T16:09:47;1.40;99.90
52203;DHT22;38173;52.850;6.970;2022-11-20T16:12:13;1.30;99.90
52203;DHT22;38173;52.850;6.970;2022-11-20T16:14:58;1.40;99.90
52203;DHT22;38173;52.850;6.970;2022-11-20T16:17:43;1.30;99.90
52203;DHT22;38173;52.850;6.970;2022-11-20T16:20:10;1.30;99.90
52203;DHT22;38173;52.850;6.970;2022-11-20T16:22:35;1.30;99.90
52203;DHT22;38173;52.850;6.970;2022-11-20T16:25:01;1.30;99.90
52203;DHT22;38173;52.850;6.970;2022-11-20T16:27:27;1.20;99.90
52203;DHT22;38173;52.850;6.970;2022-11-20T16:29:52;1.20;99.90
52203;DHT22;38173;52.850;6.970;2022-11-20T16:32:18;1.20;99.90
52203;DHT22;38173;52.850;6.970;2022-11-20T16:34:43;1.20;99.90
52203;DHT22;38173;52.850;6.970;2022-11-20T16:37:09;1.20;99.90
52203;DHT22;38173;52.850;6.970;2022-11-20T16:39:34;1.20;99.90
52203;DHT22;38173;52.850;6.970;2022-11-20T16:42:02;1.20;99.90
52203;DHT22;38173;52.850;6.970;2022-11-20T16:44:28;1.20;99.90
52203;DHT22;38173;52.850;6.970;2022-11-20T16:46:54;1.10;99.90
52203;DHT22;38173;52.850;6.970;2022-11-20T16:49:20;1.20;99.90
52203;DHT22;38173;52.850;6.970;2022-11-20T16:51:45;1.20;99.90
52203;DHT22;38173;52.850;6.970;2022-11-20T16:54:11;1.10;99.90
52203;DHT22;38173;52.850;6.970;2022-11-20T16:56:37;1.10;99.90